createdAt,value
2019-04-25T00:00:12.917Z,1001.53
2019-04-25T00:01:12.820Z,1001.71
2019-04-25T00:02:12.721Z,1001.77
2019-04-25T00:03:12.624Z,1001.77
2019-04-25T00:04:12.525Z,1001.74
2019-04-25T00:05:12.423Z,1001.75
2019-04-25T00:06:12.331Z,1001.71
2019-04-25T00:07:12.228Z,1001.70
2019-04-25T00:08:12.130Z,1001.73
2019-04-25T00:09:12.034Z,1001.83
2019-04-25T00:10:13.635Z,1001.80
2019-04-25T00:11:11.886Z,1001.87
2019-04-25T00:12:12.149Z,1001.83
2019-04-25T00:13:11.762Z,1001.85
2019-04-25T00:14:13.228Z,1001.92
2019-04-25T00:15:11.444Z,1001.88
2019-04-25T00:16:11.622Z,1001.86
2019-04-25T00:17:11.356Z,1001.86
2019-04-25T00:18:11.943Z,1001.86
2019-04-25T00:19:11.739Z,1001.82
2019-04-25T00:20:11.391Z,1001.96
2019-04-25T00:21:12.110Z,1002.02
2019-04-25T05:13:41.630Z,1005.41
2019-04-25T05:14:41.580Z,1005.43
2019-04-25T05:15:42.995Z,1005.44
2019-04-25T05:16:41.336Z,1005.43
2019-04-25T05:17:41.239Z,1005.48
2019-04-25T05:18:41.140Z,1005.52
2019-04-25T05:19:41.054Z,1005.57
2019-04-25T05:20:40.946Z,1005.57
2019-04-25T05:21:40.850Z,1005.62
2019-04-25T05:22:40.764Z,1005.63
2019-04-25T06:54:33.510Z,1006.86
2019-04-25T06:55:32.689Z,1006.94
2019-04-25T06:56:33.115Z,1006.91
2019-04-25T06:57:32.082Z,1006.98
2019-04-25T06:58:32.295Z,1006.88
2019-04-25T06:59:32.348Z,1006.98
2019-04-25T07:00:35.266Z,1007.01
2019-04-25T07:01:31.497Z,1006.94
2019-04-25T07:02:31.452Z,1006.84
2019-04-25T07:03:31.532Z,1007.00
2019-04-25T07:04:31.319Z,1007.08
2019-04-25T07:05:35.807Z,1007.07
2019-04-25T07:06:31.327Z,1007.10
2019-04-25T07:07:31.089Z,1007.10
2019-04-25T07:08:31.136Z,1007.15
2019-04-25T07:09:31.143Z,1007.17
2019-04-25T07:10:31.442Z,1007.23
2019-04-25T07:11:30.584Z,1007.25
2019-04-25T07:12:32.436Z,1007.03
2019-04-25T07:13:30.470Z,1007.09
2019-04-25T07:14:30.314Z,1007.13
2019-04-25T07:15:30.225Z,1007.14
2019-04-25T07:16:30.134Z,1007.33
2019-04-25T07:17:30.559Z,1007.36
2019-04-25T07:18:32.437Z,1007.37
2019-04-25T07:19:29.913Z,1007.35
2019-04-25T07:20:30.229Z,1007.41
2019-04-25T07:21:30.209Z,1007.35
2019-04-25T07:22:29.587Z,1007.26
2019-04-25T07:23:29.716Z,1007.28
2019-04-25T07:24:29.415Z,1007.23
2019-04-25T07:25:30.252Z,1007.18
2019-04-25T07:26:30.128Z,1007.16
2019-04-25T07:27:29.139Z,1007.17
2019-04-25T07:28:30.910Z,1007.16
2019-04-25T07:29:28.960Z,1007.19
2019-04-25T07:30:45.461Z,1007.20
2019-04-25T07:31:28.775Z,1007.18
2019-04-25T07:32:30.864Z,1007.22
2019-04-25T07:33:29.492Z,1007.29
2019-04-25T07:34:28.871Z,1007.33
2019-04-25T07:35:28.980Z,1007.31
2019-04-25T07:36:28.315Z,1007.33
2019-04-25T07:37:28.224Z,1007.34
2019-04-25T07:38:29.003Z,1007.35
2019-04-25T07:39:28.041Z,1007.34
2019-04-25T07:40:27.950Z,1007.31
2019-04-25T07:41:27.855Z,1007.37
2019-04-25T07:42:27.763Z,1007.34
2019-04-25T07:43:27.667Z,1007.31
2019-04-25T07:44:38.318Z,1007.31
2019-04-25T07:45:27.482Z,1007.27
2019-04-25T07:46:27.801Z,1007.28
2019-04-25T07:47:27.371Z,1007.30
2019-04-25T07:48:28.018Z,1007.37
2019-04-25T07:49:28.342Z,1007.37
2019-04-25T07:50:27.059Z,1007.39
2019-04-25T07:51:26.918Z,1007.43
2019-04-25T08:00:27.284Z,1007.42
2019-04-25T08:01:26.874Z,1007.43
2019-04-25T08:02:25.874Z,1007.38
2019-04-25T08:03:25.780Z,1007.40
2019-04-25T08:04:25.682Z,1007.41
2019-04-25T08:05:25.587Z,1007.39
2019-04-25T08:06:25.492Z,1007.40
2019-04-25T08:07:25.394Z,1007.38
2019-04-25T08:08:25.362Z,1007.41
2019-04-25T08:09:25.213Z,1007.39
2019-04-25T08:10:25.109Z,1007.39
2019-04-25T08:11:25.015Z,1007.37
2019-04-25T08:12:25.249Z,1007.38
2019-04-25T08:13:24.822Z,1007.40
2019-04-25T08:14:24.725Z,1007.38
2019-04-25T08:15:24.629Z,1007.38
2019-04-25T08:16:24.534Z,1007.36
2019-04-25T08:17:24.441Z,1007.40
2019-04-25T08:18:25.472Z,1007.40
2019-04-25T08:19:24.247Z,1007.39
2019-04-25T08:20:24.150Z,1007.42
2019-04-25T08:21:25.704Z,1007.40
2019-04-25T08:22:23.959Z,1007.47
2019-04-25T08:23:23.875Z,1007.42
2019-04-25T08:24:23.999Z,1007.48
2019-04-25T08:25:23.670Z,1007.48
2019-04-25T08:26:24.007Z,1007.50
2019-04-25T08:27:23.527Z,1007.51
2019-04-25T08:28:23.707Z,1007.51
2019-04-25T08:29:25.285Z,1007.53
2019-04-25T08:30:23.993Z,1007.54
2019-04-25T08:31:23.457Z,1007.55
2019-04-25T08:32:23.774Z,1007.58
2019-04-25T08:33:23.754Z,1007.55
2019-04-25T08:34:24.239Z,1007.56
2019-04-25T08:35:24.054Z,1007.57
2019-04-25T08:36:23.375Z,1007.59
2019-04-25T08:37:24.034Z,1007.58
2019-04-25T08:38:23.911Z,1007.61
2019-04-25T08:39:23.728Z,1007.61
2019-04-25T08:40:23.730Z,1007.61
2019-04-25T08:41:23.791Z,1007.58
2019-04-25T08:42:22.037Z,1007.53
2019-04-25T08:43:21.940Z,1007.55
2019-04-25T08:44:21.848Z,1007.56
2019-04-25T08:45:21.751Z,1007.61
2019-04-25T08:46:21.654Z,1007.61
2019-04-25T08:47:21.558Z,1007.60
2019-04-25T08:48:21.463Z,1007.63
2019-04-25T08:49:21.389Z,1007.63
2019-04-25T08:50:28.812Z,1007.64
2019-04-25T08:51:21.242Z,1007.61
2019-04-25T08:52:21.079Z,1007.64
2019-04-25T08:53:20.983Z,1007.64
2019-04-25T08:54:20.885Z,1007.67
2019-04-25T08:55:20.790Z,1007.70
2019-04-25T08:56:20.694Z,1007.74
2019-04-25T08:57:20.598Z,1007.75
2019-04-25T08:58:20.502Z,1007.80
2019-04-25T08:59:32.183Z,1007.80
2019-04-25T09:00:20.309Z,1007.82
2019-04-25T09:01:20.212Z,1007.85
2019-04-25T09:02:20.118Z,1007.88
2019-04-25T09:04:19.924Z,1007.88
2019-04-25T09:05:19.835Z,1007.92
2019-04-25T09:06:19.730Z,1007.91
2019-04-25T09:07:19.634Z,1007.88
2019-04-25T09:08:19.538Z,1007.94
2019-04-25T09:09:19.446Z,1007.96
2019-04-25T09:10:19.347Z,1007.96
2019-04-25T09:11:19.274Z,1007.98
2019-04-25T09:12:19.216Z,1007.86
2019-04-25T09:13:19.063Z,1007.88
2019-04-25T09:14:18.968Z,1007.91
2019-04-25T09:15:18.878Z,1007.85
2019-04-25T09:16:18.788Z,1007.84
2019-04-25T09:17:18.691Z,1007.84
2019-04-25T09:18:18.599Z,1007.84
2019-04-25T09:19:18.507Z,1007.84
2019-04-25T09:20:18.415Z,1007.87
2019-04-25T09:21:18.329Z,1007.80
2019-04-25T09:22:18.235Z,1007.75
2019-04-25T09:23:18.144Z,1007.76
2019-04-25T09:24:18.055Z,1007.84
2019-04-25T09:25:17.964Z,1007.77
2019-04-25T09:26:17.877Z,1007.80
2019-04-25T09:27:17.787Z,1007.88
2019-04-25T09:28:17.699Z,1007.90
2019-04-25T09:29:19.727Z,1007.93
2019-04-25T09:30:17.518Z,1007.95
2019-04-25T09:31:17.433Z,1007.87
2019-04-25T09:32:17.344Z,1007.83
2019-04-25T09:33:17.258Z,1007.84
2019-04-25T09:34:17.191Z,1007.79
2019-04-25T09:35:17.083Z,1007.85
2019-04-25T09:36:16.999Z,1007.89
2019-04-25T09:37:16.908Z,1007.84
2019-04-25T09:38:16.819Z,1007.89
2019-04-25T09:39:16.736Z,1007.89
2019-04-25T09:40:16.648Z,1007.91
2019-04-25T09:41:16.559Z,1007.94
2019-04-25T09:42:16.471Z,1007.88
2019-04-25T09:43:16.386Z,1007.88
2019-04-25T09:44:16.299Z,1007.88
2019-04-25T09:45:16.214Z,1007.94
2019-04-25T09:46:16.130Z,1007.93
2019-04-25T09:47:16.043Z,1008.00
2019-04-25T09:48:15.956Z,1007.98
2019-04-25T09:49:15.870Z,1007.94
2019-04-25T09:50:15.786Z,1007.91
2019-04-25T09:51:15.701Z,1007.88
2019-04-25T09:52:15.614Z,1007.85
2019-04-25T09:53:21.910Z,1007.89
2019-04-25T09:54:15.449Z,1007.87
2019-04-25T09:55:15.363Z,1007.84
2019-04-25T09:56:15.278Z,1007.84
2019-04-25T09:57:15.233Z,1007.78
2019-04-25T09:58:15.274Z,1007.80
2019-04-25T09:59:26.499Z,1007.83
2019-04-25T10:00:14.947Z,1007.77
2019-04-25T10:01:14.865Z,1007.81
2019-04-25T10:02:14.830Z,1007.78
2019-04-25T10:03:14.698Z,1007.74
2019-04-25T10:04:14.616Z,1007.73
2019-04-25T10:05:14.535Z,1007.70
2019-04-25T10:06:14.451Z,1007.67
2019-04-25T10:07:14.374Z,1007.64
2019-04-25T10:08:14.287Z,1007.60
2019-04-25T10:09:15.703Z,1007.66
2019-04-25T10:10:14.125Z,1007.64
2019-04-25T10:11:14.784Z,1007.67
2019-04-25T10:12:14.649Z,1007.64
2019-04-25T10:13:13.881Z,1007.60
2019-04-25T10:14:13.799Z,1007.58
2019-04-25T10:15:14.312Z,1007.58
2019-04-25T10:16:13.630Z,1007.54
2019-04-25T10:17:13.749Z,1007.56
2019-04-25T10:18:14.294Z,1007.60
2019-04-25T10:19:13.388Z,1007.58
2019-04-25T10:20:14.581Z,1007.56
2019-04-25T10:21:14.314Z,1007.61
2019-04-25T10:22:13.647Z,1007.60
2019-04-25T10:23:13.664Z,1007.67
2019-04-25T10:24:13.598Z,1007.72
2019-04-25T10:25:13.326Z,1007.62
2019-04-25T10:26:12.813Z,1007.69
2019-04-25T10:27:13.869Z,1007.68
2019-04-25T10:28:13.231Z,1007.67
2019-04-25T10:29:12.568Z,1007.70
2019-04-25T10:30:17.792Z,1007.66
2019-04-25T10:31:13.659Z,1007.62
2019-04-25T10:32:13.026Z,1007.52
2019-04-25T10:33:12.245Z,1007.51
2019-04-25T10:34:13.947Z,1007.46
2019-04-25T10:35:14.644Z,1007.48
2019-04-25T10:36:12.004Z,1007.48
2019-04-25T10:37:13.705Z,1007.49
2019-04-25T10:38:11.847Z,1007.52
2019-04-25T10:39:11.804Z,1007.46
2019-04-25T10:40:13.284Z,1007.49
2019-04-25T10:41:11.606Z,1007.42
2019-04-25T10:42:11.528Z,1007.45
2019-04-25T10:43:11.449Z,1007.50
2019-04-25T10:44:11.369Z,1007.50
2019-04-25T10:45:21.310Z,1007.51
2019-04-25T10:46:11.207Z,1007.50
2019-04-25T10:47:11.170Z,1007.48
2019-04-25T10:48:11.110Z,1007.49
2019-04-25T10:49:10.972Z,1007.49
2019-04-25T10:50:10.892Z,1007.47
2019-04-25T10:51:10.814Z,1007.47
2019-04-25T10:52:10.735Z,1007.44
2019-04-25T10:53:10.655Z,1007.43
2019-04-25T10:54:10.573Z,1007.48
2019-04-25T10:55:10.499Z,1007.46
2019-04-25T10:56:10.419Z,1007.47
2019-04-25T10:57:10.347Z,1007.44
2019-04-25T10:58:10.259Z,1007.42
2019-04-25T10:59:10.180Z,1007.36
2019-04-25T11:00:10.105Z,1007.33
2019-04-25T11:01:10.021Z,1007.30
2019-04-25T11:02:09.940Z,1007.27
2019-04-25T11:03:09.861Z,1007.30
2019-04-25T11:04:09.779Z,1007.36
2019-04-25T11:05:09.703Z,1007.31
2019-04-25T11:06:09.621Z,1007.28
2019-04-25T11:07:09.540Z,1007.24
2019-04-25T11:08:09.458Z,1007.24
2019-04-25T11:09:09.377Z,1007.17
2019-04-25T11:10:09.292Z,1007.21
2019-04-25T11:11:09.212Z,1007.20
2019-04-25T11:12:09.137Z,1007.19
2019-04-25T11:13:09.071Z,1007.18
2019-04-25T11:14:08.962Z,1007.15
2019-04-25T11:15:08.895Z,1007.16
2019-04-25T11:16:08.795Z,1007.21
2019-04-25T11:17:08.711Z,1007.14
2019-04-25T11:18:08.625Z,1007.07
2019-04-25T11:19:08.538Z,1007.20
2019-04-25T11:20:08.456Z,1007.17
2019-04-25T11:21:08.370Z,1007.18
2019-04-25T11:22:08.286Z,1007.16
2019-04-25T11:23:08.199Z,1007.14
2019-04-25T11:24:08.119Z,1007.13
2019-04-25T11:25:08.033Z,1007.08
2019-04-25T11:26:07.943Z,1007.07
2019-04-25T11:27:07.854Z,1007.05
2019-04-25T11:28:07.769Z,1007.02
2019-04-25T11:29:07.682Z,1007.02
2019-04-25T11:30:11.147Z,1007.02
2019-04-25T11:31:07.509Z,1007.03
2019-04-25T11:32:07.422Z,1007.08
2019-04-25T11:33:07.336Z,1007.07
2019-04-25T11:34:07.245Z,1007.10
2019-04-25T11:35:07.158Z,1007.12
2019-04-25T11:36:07.109Z,1007.12
2019-04-25T11:37:07.041Z,1007.10
2019-04-25T11:38:06.904Z,1007.09
2019-04-25T11:39:06.805Z,1007.06
2019-04-25T11:40:06.715Z,1007.03
2019-04-25T11:41:06.628Z,1007.03
2019-04-25T11:42:06.534Z,1007.02
2019-04-25T11:43:06.446Z,1006.96
2019-04-25T11:44:06.357Z,1006.95
2019-04-25T11:45:06.275Z,1006.96
2019-04-25T11:46:06.176Z,1006.93
2019-04-25T11:47:07.685Z,1006.86
2019-04-25T11:48:05.999Z,1006.90
2019-04-25T11:49:05.905Z,1006.89
2019-04-25T11:50:05.815Z,1006.88
2019-04-25T11:51:05.723Z,1006.83
2019-04-25T11:52:05.633Z,1006.86
2019-04-25T11:53:05.542Z,1006.85
2019-04-25T11:54:05.449Z,1006.87
2019-04-25T11:55:05.364Z,1006.89
2019-04-25T11:56:05.267Z,1006.84
2019-04-25T12:17:03.801Z,1006.76
2019-04-25T12:18:04.582Z,1006.77
2019-04-25T12:19:04.690Z,1006.78
2019-04-25T12:20:03.916Z,1006.77
2019-04-25T12:21:04.214Z,1006.80
2019-04-25T12:22:04.049Z,1006.80
2019-04-25T12:23:08.396Z,1006.80
2019-04-25T12:24:05.438Z,1006.80
2019-04-25T12:25:02.603Z,1006.79
2019-04-25T12:26:03.914Z,1006.77
2019-04-25T12:27:04.118Z,1006.75
2019-04-25T12:28:02.838Z,1006.80
2019-04-25T12:29:04.236Z,1006.82
2019-04-25T12:30:03.842Z,1006.78
2019-04-25T12:31:02.045Z,1006.80
2019-04-25T12:32:01.953Z,1006.79
2019-04-25T12:33:03.258Z,1006.80
2019-04-25T12:34:03.304Z,1006.79
2019-04-25T12:35:01.674Z,1006.80
2019-04-25T12:36:01.585Z,1006.81
2019-04-25T12:37:01.489Z,1006.75
2019-04-25T12:38:01.398Z,1006.73
2019-04-25T12:39:01.305Z,1006.81
2019-04-25T12:40:02.444Z,1006.71
2019-04-25T12:41:01.120Z,1006.73
2019-04-25T12:42:01.039Z,1006.77
2019-04-25T12:43:00.966Z,1006.76
2019-04-25T12:44:00.847Z,1006.78
2019-04-25T12:45:00.750Z,1006.79
2019-04-25T12:46:00.666Z,1006.75
2019-04-25T12:47:00.566Z,1006.74
2019-04-25T12:48:00.474Z,1006.76
2019-04-25T12:49:00.379Z,1006.75
2019-04-25T12:50:00.287Z,1006.72
2019-04-25T12:51:00.194Z,1006.72
2019-04-25T12:52:00.101Z,1006.75
2019-04-25T12:53:00.009Z,1006.75
2019-04-25T12:53:59.916Z,1006.70
2019-04-25T12:54:59.825Z,1006.73
2019-04-25T12:55:59.733Z,1006.73
2019-04-25T12:56:59.878Z,1006.74
2019-04-25T12:57:59.545Z,1006.74
2019-04-25T12:59:00.347Z,1006.65
2019-04-25T12:59:59.361Z,1006.72
2019-04-25T13:01:00.049Z,1006.71
2019-04-25T13:02:00.105Z,1006.72
2019-04-25T13:02:59.083Z,1006.68
2019-04-25T13:03:59.000Z,1006.66
2019-04-25T13:04:58.945Z,1006.61
2019-04-25T13:05:58.813Z,1006.60
2019-04-25T13:06:58.716Z,1006.59
2019-04-25T13:07:59.750Z,1006.55
2019-04-25T13:08:59.483Z,1006.56
2019-04-25T13:09:58.435Z,1006.54
2019-04-25T13:11:07.561Z,1006.64
2019-04-25T13:11:58.250Z,1006.59
2019-04-25T13:12:58.156Z,1006.54
2019-04-25T13:13:58.062Z,1006.58
2019-04-25T13:14:57.971Z,1006.52
2019-04-25T13:15:57.879Z,1006.50
2019-04-25T13:16:57.786Z,1006.52
2019-04-25T13:17:57.693Z,1006.49
2019-04-25T13:19:09.189Z,1006.46
2019-04-25T13:19:57.545Z,1006.46
2019-04-25T13:20:58.211Z,1006.47
2019-04-25T13:21:57.929Z,1006.50
2019-04-25T13:22:57.229Z,1006.52
2019-04-25T13:23:58.018Z,1006.48
2019-04-25T13:24:57.046Z,1006.47
2019-04-25T13:25:57.326Z,1006.47
2019-04-25T13:26:56.996Z,1006.45
2019-04-25T13:27:57.453Z,1006.44
2019-04-25T13:28:56.675Z,1006.47
2019-04-25T13:29:57.241Z,1006.45
2019-04-25T13:31:04.011Z,1006.44
2019-04-25T13:31:56.398Z,1006.42
2019-04-25T13:32:56.526Z,1006.43
2019-04-25T13:33:57.211Z,1006.42
2019-04-25T13:34:57.041Z,1006.43
2019-04-25T13:35:56.218Z,1006.41
2019-04-25T13:36:56.411Z,1006.41
2019-04-25T13:37:57.510Z,1006.39
2019-04-25T13:38:57.036Z,1006.38
2019-04-25T13:39:55.657Z,1006.39
2019-04-25T13:40:55.568Z,1006.36
2019-04-25T13:41:58.313Z,1006.34
2019-04-25T13:42:56.380Z,1006.35
2019-04-25T13:43:55.289Z,1006.30
2019-04-25T13:44:56.588Z,1006.28
2019-04-25T13:45:55.103Z,1006.28
2019-04-25T13:46:55.010Z,1006.30
2019-04-25T13:47:54.960Z,1006.29
2019-04-25T13:48:54.881Z,1006.28
2019-04-25T13:49:54.734Z,1006.31
2019-04-25T13:50:54.638Z,1006.31
2019-04-25T13:51:54.546Z,1006.31
2019-04-25T13:52:54.455Z,1006.28
2019-04-25T13:53:54.520Z,1006.30
2019-04-25T13:54:54.269Z,1006.30
2019-04-25T13:55:54.177Z,1006.28
2019-04-25T13:56:54.086Z,1006.27
2019-04-25T13:57:54.837Z,1006.26
2019-04-25T13:58:54.276Z,1006.26
2019-04-25T13:59:54.097Z,1006.21
2019-04-25T14:00:53.713Z,1006.17
2019-04-25T14:01:54.104Z,1006.20
2019-04-25T14:02:53.533Z,1006.17
2019-04-25T14:03:54.260Z,1006.20
2019-04-25T14:04:53.346Z,1006.19
2019-04-25T14:05:54.002Z,1006.19
2019-04-25T14:06:53.159Z,1006.18
2019-04-25T14:07:53.065Z,1006.19
2019-04-25T14:08:53.391Z,1006.14
2019-04-25T14:09:53.214Z,1006.14
2019-04-25T14:10:54.199Z,1006.14
2019-04-25T14:11:53.897Z,1006.11
2019-04-25T14:12:53.622Z,1006.09
2019-04-25T14:13:52.511Z,1006.08
2019-04-25T14:14:53.949Z,1006.07
2019-04-25T14:15:53.558Z,1006.11
2019-04-25T14:16:52.236Z,1006.09
2019-04-25T14:17:53.747Z,1006.10
2019-04-25T14:18:52.052Z,1006.08
2019-04-25T14:19:51.955Z,1006.09
2019-04-25T14:20:51.867Z,1006.12
2019-04-25T14:21:51.770Z,1006.09
2019-04-25T14:22:53.323Z,1006.09
2019-04-25T14:23:51.588Z,1006.05
2019-04-25T14:24:51.497Z,1006.05
2019-04-25T14:25:51.402Z,1006.07
2019-04-25T14:26:51.309Z,1006.05
2019-04-25T14:27:51.217Z,1006.04
2019-04-25T14:28:51.126Z,1006.03
2019-04-25T14:29:51.031Z,1006.01
2019-04-25T14:30:50.940Z,1006.02
2019-04-25T14:31:50.902Z,1005.97
2019-04-25T14:32:50.827Z,1006.00
2019-04-25T14:33:51.755Z,1005.98
2019-04-25T14:34:50.571Z,1005.99
2019-04-25T14:35:50.478Z,1006.02
2019-04-25T14:36:50.394Z,1005.97
2019-04-25T14:37:50.294Z,1005.94
2019-04-25T14:38:50.201Z,1005.97
2019-04-25T14:39:50.111Z,1005.98
2019-04-25T14:40:50.016Z,1005.95
2019-04-25T14:41:49.925Z,1005.98
2019-04-25T14:42:49.831Z,1005.95
2019-04-25T14:43:49.759Z,1005.91
2019-04-25T14:44:49.655Z,1005.95
2019-04-25T14:45:49.554Z,1005.89
2019-04-25T14:46:49.463Z,1005.92
2019-04-25T14:47:49.370Z,1005.87
2019-04-25T14:48:50.305Z,1005.92
2019-04-25T14:49:49.184Z,1005.89
2019-04-25T14:50:49.092Z,1005.88
2019-04-25T14:51:48.999Z,1005.89
2019-04-25T14:52:48.908Z,1005.89
2019-04-25T14:53:48.859Z,1005.86
2019-04-25T14:54:48.791Z,1005.84
2019-04-25T14:55:48.630Z,1005.82
2019-04-25T14:56:48.537Z,1005.82
2019-04-25T14:57:48.444Z,1005.83
2019-04-25T14:58:48.352Z,1005.77
2019-04-25T14:59:48.263Z,1005.83
2019-04-25T15:00:48.167Z,1005.76
2019-04-25T15:01:48.074Z,1005.81
2019-04-25T15:02:47.983Z,1005.83
2019-04-25T15:03:47.895Z,1005.80
2019-04-25T15:04:47.798Z,1005.78
2019-04-25T15:05:47.704Z,1005.81
2019-04-25T15:06:47.612Z,1005.83
2019-04-25T15:07:48.298Z,1005.80
2019-04-25T15:08:47.430Z,1005.79
2019-04-25T15:09:47.342Z,1005.78
2019-04-25T15:10:48.408Z,1005.81
2019-04-25T15:11:47.151Z,1005.78
2019-04-25T15:12:47.058Z,1005.77
2019-04-25T15:13:46.966Z,1005.70
2019-04-25T15:14:46.871Z,1005.77
2019-04-25T15:15:46.840Z,1005.79
2019-04-25T15:16:46.706Z,1005.76
2019-04-25T15:17:46.934Z,1005.79
2019-04-25T15:18:47.149Z,1005.70
2019-04-25T15:19:46.411Z,1005.68
2019-04-25T15:20:46.317Z,1005.70
2019-04-25T15:21:46.223Z,1005.70
2019-04-25T15:22:46.130Z,1005.72
2019-04-25T15:23:46.040Z,1005.68
2019-04-25T15:24:45.947Z,1005.64
2019-04-25T15:25:45.858Z,1005.63
2019-04-25T15:26:45.760Z,1005.66
2019-04-25T15:27:45.667Z,1005.59
2019-04-25T15:28:45.575Z,1005.66
2019-04-25T15:29:45.482Z,1005.66
2019-04-25T15:30:45.948Z,1005.64
2019-04-25T15:31:55.470Z,1005.64
2019-04-25T15:32:45.205Z,1005.66
2019-04-25T15:33:45.112Z,1005.64
2019-04-25T15:34:45.028Z,1005.65
2019-04-25T15:35:45.010Z,1005.61
2019-04-25T15:36:44.835Z,1005.63
2019-04-25T15:37:44.805Z,1005.60
2019-04-25T15:38:44.651Z,1005.59
2019-04-25T15:39:44.556Z,1005.59
2019-04-25T15:40:44.464Z,1005.56
2019-04-25T15:41:44.369Z,1005.58
2019-04-25T15:42:44.279Z,1005.59
2019-04-25T15:43:44.183Z,1005.60
2019-04-25T15:44:44.092Z,1005.55
2019-04-25T15:45:43.998Z,1005.58
2019-04-25T15:46:43.905Z,1005.57
2019-04-25T15:47:45.552Z,1005.55
2019-04-25T15:48:43.719Z,1005.50
2019-04-25T15:49:43.626Z,1005.50
2019-04-25T15:50:43.532Z,1005.52
2019-04-25T15:51:43.443Z,1005.53
2019-04-25T15:52:44.954Z,1005.55
2019-04-25T15:53:43.255Z,1005.54
2019-04-25T15:54:43.161Z,1005.50
2019-04-25T15:55:43.069Z,1005.49
2019-04-25T15:56:42.979Z,1005.46
2019-04-25T15:57:42.882Z,1005.52
2019-04-25T15:58:42.787Z,1005.46
2019-04-25T15:59:42.717Z,1005.45
2019-04-25T16:00:42.602Z,1005.45
2019-04-25T16:01:42.510Z,1005.45
2019-04-25T16:02:42.418Z,1005.49
2019-04-25T16:03:42.325Z,1005.43
2019-04-25T16:04:42.230Z,1005.46
2019-04-25T16:05:42.139Z,1005.44
2019-04-25T16:06:42.050Z,1005.43
2019-04-25T16:07:41.953Z,1005.42
2019-04-25T16:08:41.861Z,1005.42
2019-04-25T16:09:41.768Z,1005.39
2019-04-25T16:10:41.682Z,1005.43
2019-04-25T16:11:41.591Z,1005.40
2019-04-25T16:12:41.492Z,1005.42
2019-04-25T16:13:41.395Z,1005.42
2019-04-25T16:14:41.304Z,1005.37
2019-04-25T16:15:41.467Z,1005.35
2019-04-25T16:16:41.120Z,1005.40
2019-04-25T16:17:41.024Z,1005.44
2019-04-25T16:18:41.156Z,1005.42
2019-04-25T16:19:41.227Z,1005.40
2019-04-25T16:20:40.765Z,1005.42
2019-04-25T16:21:42.144Z,1005.37
2019-04-25T16:22:41.299Z,1005.38
2019-04-25T16:23:40.470Z,1005.39
2019-04-25T16:24:41.045Z,1005.34
2019-04-25T16:25:41.216Z,1005.36
2019-04-25T16:26:40.188Z,1005.39
2019-04-25T16:27:41.066Z,1005.36
2019-04-25T16:28:40.000Z,1005.36
2019-04-25T16:29:39.907Z,1005.34
2019-04-25T16:30:40.717Z,1005.34
2019-04-25T16:31:39.722Z,1005.37
2019-04-25T16:32:39.630Z,1005.37
2019-04-25T16:33:39.537Z,1005.37
2019-04-25T16:34:39.964Z,1005.35
2019-04-25T16:35:39.350Z,1005.30
2019-04-25T16:36:39.697Z,1005.30
2019-04-25T16:37:39.162Z,1005.28
2019-04-25T16:38:39.099Z,1005.29
2019-04-25T16:39:38.981Z,1005.32
2019-04-25T16:40:38.885Z,1005.32
2019-04-25T16:41:40.346Z,1005.34
2019-04-25T16:42:39.732Z,1005.36
2019-04-25T16:43:38.994Z,1005.34
2019-04-25T16:44:38.512Z,1005.37
2019-04-25T16:45:38.416Z,1005.35
2019-04-25T16:46:38.346Z,1005.35
2019-04-25T16:47:38.234Z,1005.34
2019-04-25T16:48:39.049Z,1005.35
2019-04-25T16:49:39.028Z,1005.33
2019-04-25T16:50:37.955Z,1005.30
2019-04-25T16:51:37.969Z,1005.32
2019-04-25T16:52:37.990Z,1005.31
2019-04-25T16:53:37.909Z,1005.36
2019-04-25T16:54:38.073Z,1005.34
2019-04-25T16:55:37.492Z,1005.29
2019-04-25T16:56:37.395Z,1005.31
2019-04-25T16:57:37.301Z,1005.34
2019-04-25T16:58:37.211Z,1005.32
2019-04-25T16:59:37.671Z,1005.29
2019-04-25T17:00:37.024Z,1005.32
2019-04-25T17:01:36.931Z,1005.31
2019-04-25T17:02:39.635Z,1005.29
2019-04-25T17:03:37.671Z,1005.29
2019-04-25T17:04:37.451Z,1005.26
2019-04-25T17:05:37.092Z,1005.26
2019-04-25T17:06:36.464Z,1005.30
2019-04-25T17:07:36.371Z,1005.30
2019-04-25T17:08:36.277Z,1005.28
2019-04-25T17:09:36.184Z,1005.28
2019-04-25T17:10:36.899Z,1005.26
2019-04-25T17:11:36.003Z,1005.23
2019-04-25T17:12:36.507Z,1005.20
2019-04-25T17:13:35.908Z,1005.25
2019-04-25T17:14:35.719Z,1005.22
2019-04-25T17:15:36.228Z,1005.27
2019-04-25T17:16:35.533Z,1005.22
2019-04-25T17:17:35.895Z,1005.22
2019-04-25T17:18:36.083Z,1005.27
2019-04-25T17:19:35.252Z,1005.26
2019-04-25T17:20:35.161Z,1005.27
2019-04-25T17:21:35.068Z,1005.26
2019-04-25T17:22:35.117Z,1005.28
2019-04-25T17:23:34.879Z,1005.24
2019-04-25T17:24:34.785Z,1005.22
2019-04-25T17:25:34.728Z,1005.23
2019-04-25T17:26:34.805Z,1005.25
2019-04-25T17:27:34.935Z,1005.27
2019-04-25T17:28:34.957Z,1005.26
2019-04-25T17:29:34.609Z,1005.24
2019-04-25T17:30:34.750Z,1005.24
2019-04-25T17:31:34.173Z,1005.23
2019-04-25T17:32:46.826Z,1005.25
2019-04-25T17:33:33.943Z,1005.24
2019-04-25T17:34:34.066Z,1005.23
2019-04-25T17:35:33.758Z,1005.26
2019-04-25T17:36:35.626Z,1005.28
2019-04-25T17:37:34.292Z,1005.29
2019-04-25T17:38:33.538Z,1005.30
2019-04-25T17:39:33.440Z,1005.29
2019-04-25T17:40:33.865Z,1005.32
2019-04-25T17:41:34.137Z,1005.28
2019-04-25T17:42:33.726Z,1005.26
2019-04-25T17:43:33.098Z,1005.30
2019-04-25T17:44:32.921Z,1005.30
2019-04-25T17:45:33.350Z,1005.27
2019-04-25T17:46:32.773Z,1005.27
2019-04-25T17:47:33.130Z,1005.30
2019-04-25T17:48:32.925Z,1005.29
2019-04-25T17:49:32.839Z,1005.28
2019-04-25T17:50:32.935Z,1005.26
2019-04-25T17:51:33.303Z,1005.26
2019-04-25T17:52:32.724Z,1005.26
2019-04-25T17:53:32.945Z,1005.25
2019-04-25T17:54:32.846Z,1005.24
2019-04-25T17:55:33.203Z,1005.21
2019-04-25T17:56:32.124Z,1005.19
2019-04-25T17:57:33.014Z,1005.22
2019-04-25T17:58:32.271Z,1005.24
2019-04-25T17:59:32.294Z,1005.27
2019-04-25T18:00:31.418Z,1005.29
2019-04-25T18:01:31.323Z,1005.28
2019-04-25T18:02:31.230Z,1005.27
2019-04-25T18:03:31.135Z,1005.28
2019-04-25T18:04:31.041Z,1005.26
2019-04-25T18:05:30.945Z,1005.30
2019-04-25T18:06:30.854Z,1005.28
2019-04-25T18:07:30.758Z,1005.32
2019-04-25T18:08:30.666Z,1005.25
2019-04-25T18:09:30.629Z,1005.30
2019-04-25T18:10:30.542Z,1005.28
2019-04-25T18:11:30.384Z,1005.31
2019-04-25T18:12:30.288Z,1005.28
2019-04-25T18:13:30.194Z,1005.29
2019-04-25T18:14:30.102Z,1005.26
2019-04-25T18:15:30.008Z,1005.26
2019-04-25T18:16:29.913Z,1005.29
2019-04-25T18:17:29.820Z,1005.25
2019-04-25T18:18:29.724Z,1005.30
2019-04-25T18:19:29.633Z,1005.26
2019-04-25T18:20:29.535Z,1005.26
2019-04-25T18:21:29.442Z,1005.25
2019-04-25T18:22:29.348Z,1005.23
2019-04-25T18:23:29.254Z,1005.23
2019-04-25T18:24:29.158Z,1005.23
2019-04-25T18:25:29.063Z,1005.21
2019-04-25T18:26:28.972Z,1005.25
2019-04-25T18:27:28.878Z,1005.27
2019-04-25T18:28:28.784Z,1005.26
2019-04-25T18:29:28.691Z,1005.25
2019-04-25T18:30:28.600Z,1005.28
2019-04-25T18:31:28.551Z,1005.25
2019-04-25T18:32:28.430Z,1005.30
2019-04-25T18:33:28.315Z,1005.29
2019-04-25T18:34:28.215Z,1005.30
2019-04-25T18:35:28.119Z,1005.30
2019-04-25T18:36:28.028Z,1005.27
2019-04-25T18:37:27.930Z,1005.27
2019-04-25T18:38:27.844Z,1005.26
2019-04-25T18:39:27.744Z,1005.29
2019-04-25T18:40:27.648Z,1005.28
2019-04-25T18:41:27.554Z,1005.26
2019-04-25T18:42:27.459Z,1005.23
2019-04-25T18:43:27.365Z,1005.23
2019-04-25T18:44:27.269Z,1005.29
2019-04-25T18:45:27.176Z,1005.26
2019-04-25T18:46:27.081Z,1005.28
2019-04-25T18:47:26.987Z,1005.31
2019-04-25T18:48:29.358Z,1005.29
2019-04-25T18:49:26.794Z,1005.28
2019-04-25T18:50:26.701Z,1005.30
2019-04-25T18:51:26.608Z,1005.28
2019-04-25T18:52:26.575Z,1005.29
2019-04-25T18:53:26.424Z,1005.30
2019-04-25T18:54:26.323Z,1005.32
2019-04-25T18:55:26.228Z,1005.27